createdAt,value
2022-11-16T00:00:01.557Z,3.26
2022-11-16T00:02:53.669Z,3.24
2022-11-16T00:05:27.023Z,3.22
2022-11-16T00:07:58.032Z,3.22
2022-11-16T00:10:26.126Z,3.23
2022-11-16T00:12:54.222Z,3.22
2022-11-16T00:15:22.427Z,3.23
2022-11-16T00:17:50.562Z,3.21
2022-11-16T00:20:18.869Z,3.20
2022-11-16T00:22:46.983Z,3.20
2022-11-16T00:25:15.105Z,3.21
2022-11-16T00:27:43.194Z,3.22
2022-11-16T00:30:12.124Z,3.21
2022-11-16T00:32:40.259Z,3.21
2022-11-16T00:35:09.198Z,3.22
2022-11-16T00:37:37.305Z,3.21
2022-11-16T00:40:06.980Z,3.21
2022-11-16T00:42:35.051Z,3.22
2022-11-16T00:45:04.203Z,3.21
2022-11-16T00:47:32.327Z,3.20
2022-11-16T00:50:00.529Z,3.20
2022-11-16T00:52:28.675Z,3.21
2022-11-16T00:54:57.286Z,3.20
2022-11-16T00:57:25.567Z,3.19
2022-11-16T00:59:53.973Z,3.20
2022-11-16T01:02:22.427Z,3.20
2022-11-16T01:04:50.675Z,3.20
2022-11-16T01:07:18.853Z,3.27
2022-11-16T01:09:48.726Z,3.32
2022-11-16T01:12:18.494Z,3.36
2022-11-16T01:14:48.011Z,3.39
2022-11-16T01:17:16.219Z,3.41
2022-11-16T01:19:44.368Z,3.44
2022-11-16T01:22:12.678Z,3.47
2022-11-16T01:24:41.248Z,3.51
2022-11-16T01:27:09.471Z,3.54
2022-11-16T01:29:40.908Z,3.57
2022-11-16T01:32:09.155Z,3.61
2022-11-16T01:34:38.188Z,3.64
2022-11-16T01:37:21.363Z,3.69
2022-11-16T01:39:51.243Z,3.72
2022-11-16T01:42:25.866Z,3.75
2022-11-16T01:45:01.393Z,3.77
2022-11-16T01:47:29.946Z,3.80
2022-11-16T01:50:13.302Z,3.82
2022-11-16T01:52:54.409Z,3.86
2022-11-16T01:55:24.095Z,3.87
2022-11-16T01:58:42.327Z,3.88
2022-11-16T02:01:24.625Z,3.90
2022-11-16T02:03:54.515Z,3.91
2022-11-16T02:07:23.572Z,3.92
2022-11-16T02:10:35.670Z,3.93
2022-11-16T02:13:22.585Z,3.95
2022-11-16T02:16:46.976Z,3.96
2022-11-16T02:19:54.808Z,3.98
2022-11-16T02:22:57.701Z,4.01
2022-11-16T02:25:53.831Z,4.02
2022-11-16T02:28:50.272Z,4.01
2022-11-16T02:31:30.603Z,4.02
2022-11-16T02:34:00.848Z,4.01
2022-11-16T02:36:28.996Z,4.01
2022-11-16T02:39:10.610Z,4.01
2022-11-16T02:41:42.988Z,4.03
2022-11-16T02:44:46.558Z,4.03
2022-11-16T02:47:22.298Z,4.03
2022-11-16T02:50:00.448Z,4.03
2022-11-16T02:52:29.520Z,4.03
2022-11-16T02:54:57.982Z,3.99
2022-11-16T02:57:34.978Z,3.98
2022-11-16T03:00:06.606Z,4.00
2022-11-16T03:03:14.350Z,4.00
2022-11-16T03:05:58.501Z,3.96
2022-11-16T03:08:36.580Z,3.94
2022-11-16T03:11:27.800Z,3.96
2022-11-16T03:14:02.650Z,3.95
2022-11-16T03:16:44.847Z,3.90
2022-11-16T03:19:23.904Z,3.86
2022-11-16T03:22:18.389Z,3.85
2022-11-16T03:24:47.502Z,3.88
2022-11-16T03:27:30.289Z,3.90
2022-11-16T03:30:13.838Z,3.90
2022-11-16T03:33:22.249Z,3.90
2022-11-16T03:36:33.883Z,3.91
2022-11-16T03:39:10.660Z,3.92
2022-11-16T03:41:44.314Z,3.92
2022-11-16T03:44:15.371Z,3.90
2022-11-16T03:46:45.555Z,3.87
2022-11-16T03:49:14.479Z,3.86
2022-11-16T03:51:43.363Z,3.83
2022-11-16T03:54:11.600Z,3.83
2022-11-16T03:56:40.121Z,3.84
2022-11-16T03:59:09.423Z,3.84
2022-11-16T04:01:43.272Z,3.83
2022-11-16T04:04:33.859Z,3.84
2022-11-16T04:07:20.904Z,3.88
2022-11-16T04:10:07.900Z,3.89
2022-11-16T04:12:55.040Z,3.90
2022-11-16T04:15:41.714Z,3.92
2022-11-16T04:18:29.172Z,3.93
2022-11-16T04:21:15.795Z,3.94
2022-11-16T04:24:03.487Z,3.93
2022-11-16T04:26:53.272Z,3.91
2022-11-16T04:29:21.474Z,3.92
2022-11-16T04:32:08.701Z,3.92
2022-11-16T04:34:55.342Z,3.92
2022-11-16T04:37:42.775Z,3.89
2022-11-16T04:40:12.290Z,3.88
2022-11-16T04:42:40.428Z,3.89
2022-11-16T04:45:29.009Z,3.89
2022-11-16T04:47:57.217Z,3.88
2022-11-16T04:50:28.552Z,3.90
2022-11-16T04:52:57.188Z,3.92
2022-11-16T04:55:25.429Z,3.94
2022-11-16T04:57:54.394Z,3.95
2022-11-16T05:00:23.195Z,3.95
2022-11-16T05:02:52.423Z,3.94
2022-11-16T05:05:23.354Z,3.94
2022-11-16T05:07:52.877Z,3.95
2022-11-16T05:10:25.237Z,3.98
2022-11-16T05:12:53.776Z,3.98
2022-11-16T05:15:22.292Z,3.96
2022-11-16T05:17:51.461Z,3.94
2022-11-16T05:20:41.176Z,3.91
2022-11-16T05:23:29.487Z,3.86
2022-11-16T05:25:59.785Z,3.81
2022-11-16T05:28:28.567Z,3.79
2022-11-16T05:30:56.983Z,3.77
2022-11-16T05:33:25.181Z,3.75
2022-11-16T05:35:53.440Z,3.74
2022-11-16T05:38:22.421Z,3.70
2022-11-16T05:40:53.428Z,3.68
2022-11-16T05:43:21.812Z,3.66
2022-11-16T05:45:59.957Z,3.62
2022-11-16T05:48:28.236Z,3.60
2022-11-16T05:51:00.534Z,3.60
2022-11-16T05:53:30.558Z,3.59
2022-11-16T05:56:27.594Z,3.58
2022-11-16T05:59:06.040Z,3.57
2022-11-16T06:01:34.490Z,3.58
2022-11-16T06:04:04.379Z,3.58
2022-11-16T06:06:32.899Z,3.60
2022-11-16T06:09:03.263Z,3.60
2022-11-16T06:11:36.037Z,3.61
2022-11-16T06:14:05.877Z,3.63
2022-11-16T06:16:34.784Z,3.60
2022-11-16T06:19:04.580Z,3.59
2022-11-16T06:21:33.137Z,3.59
2022-11-16T06:24:08.865Z,3.60
2022-11-16T06:26:37.439Z,3.59
2022-11-16T06:29:05.833Z,3.60
2022-11-16T06:31:34.736Z,3.57
2022-11-16T06:34:03.998Z,3.55
2022-11-16T06:36:32.137Z,3.53
2022-11-16T06:39:03.725Z,3.52
2022-11-16T06:41:40.180Z,3.53
2022-11-16T06:44:10.243Z,3.55
2022-11-16T06:46:39.558Z,3.55
2022-11-16T06:49:07.713Z,3.56
2022-11-16T06:51:36.145Z,3.55
2022-11-16T06:54:06.393Z,3.55
2022-11-16T06:56:35.522Z,3.53
2022-11-16T06:59:03.986Z,3.53
2022-11-16T07:01:32.250Z,3.53
2022-11-16T07:04:04.983Z,3.52
2022-11-16T07:06:33.245Z,3.51
2022-11-16T07:09:01.760Z,3.51
2022-11-16T07:11:31.849Z,3.51
2022-11-16T07:14:00.747Z,3.54
2022-11-16T07:16:29.746Z,3.56
2022-11-16T07:19:00.819Z,3.59
2022-11-16T07:21:30.836Z,3.62
2022-11-16T07:23:59.406Z,3.64
2022-11-16T07:26:28.940Z,3.65
2022-11-16T07:29:01.766Z,3.67
2022-11-16T07:31:30.921Z,3.70
2022-11-16T07:34:54.284Z,3.74
2022-11-16T07:37:22.591Z,3.78
2022-11-16T07:39:50.875Z,3.82
2022-11-16T07:42:19.028Z,3.84
2022-11-16T07:45:16.458Z,3.86
2022-11-16T07:47:53.338Z,3.86
2022-11-16T07:51:08.703Z,3.85
2022-11-16T07:53:41.834Z,3.85
2022-11-16T07:56:11.767Z,3.84
2022-11-16T07:58:41.368Z,3.85
2022-11-16T08:01:15.994Z,3.87
2022-11-16T08:03:46.722Z,3.90
2022-11-16T08:06:23.823Z,3.91
2022-11-16T08:08:57.802Z,3.94
2022-11-16T08:11:27.259Z,4.00
2022-11-16T08:13:57.540Z,4.02
2022-11-16T08:16:25.827Z,4.06
2022-11-16T08:19:01.273Z,4.09
2022-11-16T08:21:29.818Z,4.10
2022-11-16T08:23:58.854Z,4.12
2022-11-16T08:26:27.797Z,4.14
2022-11-16T08:29:00.442Z,4.18
2022-11-16T08:31:31.538Z,4.23
2022-11-16T08:34:18.397Z,4.28
2022-11-16T08:36:48.536Z,4.33
2022-11-16T08:39:18.965Z,4.37
2022-11-16T08:41:47.132Z,4.43
2022-11-16T08:44:16.059Z,4.48
2022-11-16T08:46:47.636Z,4.59
2022-11-16T08:49:29.210Z,4.66
2022-11-16T08:51:57.875Z,4.70
2022-11-16T08:54:29.821Z,4.78
2022-11-16T08:56:58.241Z,4.84
2022-11-16T08:59:26.790Z,4.91
2022-11-16T09:01:57.220Z,5.01
2022-11-16T09:04:25.544Z,5.10
2022-11-16T09:06:54.897Z,5.20
2022-11-16T09:09:23.237Z,5.31
2022-11-16T09:11:53.704Z,5.43
2022-11-16T09:14:22.007Z,5.51
2022-11-16T09:16:50.445Z,5.57
2022-11-16T09:19:19.004Z,5.64
2022-11-16T09:21:47.105Z,5.68
2022-11-16T09:24:15.186Z,5.72
2022-11-16T09:26:43.938Z,5.74
2022-11-16T09:29:14.570Z,5.73
2022-11-16T09:31:42.757Z,5.75
2022-11-16T09:34:11.401Z,5.78
2022-11-16T09:36:39.615Z,5.81
2022-11-16T09:39:29.615Z,5.81
2022-11-16T09:42:04.621Z,5.84
2022-11-16T09:45:12.417Z,5.89
2022-11-16T09:47:50.523Z,5.96
2022-11-16T09:50:43.422Z,6.00
2022-11-16T09:53:25.911Z,6.02
2022-11-16T09:55:58.594Z,6.05
2022-11-16T09:58:40.830Z,6.07
2022-11-16T10:01:41.458Z,6.08
2022-11-16T10:04:36.540Z,6.10
2022-11-16T10:07:43.629Z,6.09
2022-11-16T10:10:18.068Z,6.13
2022-11-16T10:13:03.202Z,6.14
2022-11-16T10:16:12.905Z,6.16
2022-11-16T10:19:03.377Z,6.20
2022-11-16T10:22:02.182Z,6.26
2022-11-16T10:24:42.339Z,6.35
2022-11-16T10:27:28.514Z,6.41
2022-11-16T10:30:10.094Z,6.46
2022-11-16T10:33:09.656Z,6.52
2022-11-16T10:35:45.550Z,6.57
2022-11-16T10:38:18.490Z,6.62
2022-11-16T10:40:52.479Z,6.66
2022-11-16T10:43:25.659Z,6.71
2022-11-16T10:45:58.082Z,6.74
2022-11-16T10:49:03.074Z,6.79
2022-11-16T10:51:31.350Z,6.85
2022-11-16T10:53:59.521Z,6.88
2022-11-16T10:56:40.565Z,6.89
2022-11-16T10:59:14.427Z,6.90
2022-11-16T11:01:49.942Z,6.90
2022-11-16T11:04:23.678Z,6.93
2022-11-16T11:07:22.011Z,6.97
2022-11-16T11:09:55.086Z,7.03
2022-11-16T11:12:38.114Z,7.06
2022-11-16T11:15:12.116Z,7.04
2022-11-16T11:17:47.290Z,7.04
2022-11-16T11:20:15.386Z,7.04
2022-11-16T11:22:58.663Z,7.01
2022-11-16T11:25:32.902Z,7.00
2022-11-16T11:28:46.599Z,6.98
2022-11-16T11:31:45.150Z,6.95
2022-11-16T11:34:22.801Z,6.91
2022-11-16T11:37:21.742Z,6.88
2022-11-16T11:40:17.563Z,6.83
2022-11-16T11:42:56.492Z,6.77
2022-11-16T11:45:36.476Z,6.73
2022-11-16T11:48:22.569Z,6.70
2022-11-16T11:50:56.114Z,6.65
2022-11-16T11:53:44.399Z,6.62
2022-11-16T11:56:14.202Z,6.59
2022-11-16T11:58:44.174Z,6.57
2022-11-16T12:01:41.027Z,6.58
2022-11-16T12:04:43.010Z,6.59
2022-11-16T12:07:37.160Z,6.61
2022-11-16T12:10:32.588Z,6.62
2022-11-16T12:13:18.603Z,6.60
2022-11-16T12:16:11.417Z,6.57
2022-11-16T12:18:50.226Z,6.56
2022-11-16T12:21:49.952Z,6.55
2022-11-16T12:25:02.226Z,6.54
2022-11-16T12:28:04.421Z,6.54
2022-11-16T12:30:47.317Z,6.53
2022-11-16T12:34:01.351Z,6.53
2022-11-16T12:37:07.718Z,6.52
2022-11-16T12:39:45.545Z,6.52
2022-11-16T12:42:41.051Z,6.51
2022-11-16T12:45:36.022Z,6.50
2022-11-16T12:48:26.011Z,6.49
2022-11-16T12:51:03.106Z,6.49
2022-11-16T12:53:52.698Z,6.49
2022-11-16T12:56:39.216Z,6.50
2022-11-16T12:59:35.369Z,6.50
2022-11-16T13:02:10.802Z,6.51
2022-11-16T13:04:50.752Z,6.51
2022-11-16T13:07:31.786Z,6.51
2022-11-16T13:10:17.252Z,6.51
2022-11-16T13:12:52.706Z,6.54
2022-11-16T13:15:34.976Z,6.59
2022-11-16T13:18:07.950Z,6.59
2022-11-16T13:20:43.892Z,6.62
2022-11-16T13:23:37.526Z,6.65
2022-11-16T13:26:23.867Z,6.68
2022-11-16T13:29:17.956Z,6.71
2022-11-16T13:31:58.312Z,6.73
2022-11-16T13:34:32.838Z,6.75
2022-11-16T13:37:01.012Z,6.77
2022-11-16T13:39:50.869Z,6.81
2022-11-16T13:42:19.109Z,6.85
2022-11-16T13:44:51.529Z,6.88
2022-11-16T13:47:28.674Z,6.91
2022-11-16T13:50:03.496Z,6.95
2022-11-16T13:53:57.703Z,6.99
2022-11-16T13:55:59.168Z,7.03
2022-11-16T13:58:29.958Z,7.05
2022-11-16T14:01:07.475Z,7.07
2022-11-16T14:03:40.931Z,7.09
2022-11-16T14:06:24.213Z,7.08
2022-11-16T14:08:55.221Z,7.09
2022-11-16T14:11:40.512Z,7.10
2022-11-16T14:15:03.954Z,7.09
2022-11-16T14:18:08.718Z,7.08
2022-11-16T14:20:57.224Z,7.10
2022-11-16T14:24:13.788Z,7.10
2022-11-16T14:27:07.695Z,7.10
2022-11-16T14:30:05.805Z,7.11
2022-11-16T14:32:43.318Z,7.10
2022-11-16T14:35:28.857Z,7.10
2022-11-16T14:38:06.486Z,7.08
2022-11-16T14:40:46.468Z,7.07
2022-11-16T14:43:29.795Z,7.06
2022-11-16T14:46:09.474Z,7.05
2022-11-16T14:48:46.019Z,7.04
2022-11-16T14:51:33.043Z,7.05
2022-11-16T14:54:11.612Z,7.05
2022-11-16T14:57:00.002Z,7.05
2022-11-16T14:59:30.536Z,7.03
2022-11-16T15:02:05.991Z,7.02
2022-11-16T15:04:34.259Z,7.00
2022-11-16T15:07:05.205Z,6.98
2022-11-16T15:09:39.236Z,6.95
2022-11-16T15:12:35.242Z,6.95
2022-11-16T15:15:15.488Z,6.94
2022-11-16T15:17:51.733Z,6.91
2022-11-16T15:20:26.160Z,6.88
2022-11-16T15:22:58.312Z,6.85
2022-11-16T15:25:43.207Z,6.84
2022-11-16T15:28:26.422Z,6.85
2022-11-16T15:31:06.533Z,6.87
2022-11-16T15:33:42.590Z,6.87
2022-11-16T15:36:39.047Z,6.89
2022-11-16T15:39:18.813Z,6.89
2022-11-16T15:41:47.576Z,6.89
2022-11-16T15:44:20.350Z,6.89
2022-11-16T15:46:53.260Z,6.88
2022-11-16T15:49:33.838Z,6.87
2022-11-16T15:52:02.552Z,6.87
2022-11-16T15:55:14.467Z,6.86
2022-11-16T15:57:46.438Z,6.86
2022-11-16T16:00:23.078Z,6.84
2022-11-16T16:02:51.827Z,6.83
2022-11-16T16:05:32.652Z,6.83
2022-11-16T16:08:00.855Z,6.84
2022-11-16T16:10:29.415Z,6.85
2022-11-16T16:13:02.365Z,6.83
2022-11-16T16:15:36.060Z,6.80
2022-11-16T16:18:36.851Z,6.77
2022-11-16T16:21:05.096Z,6.75
2022-11-16T16:23:33.628Z,6.74
2022-11-16T16:26:05.196Z,6.74
2022-11-16T16:28:33.335Z,6.75
2022-11-16T16:31:01.802Z,6.75
2022-11-16T16:33:30.213Z,6.76
2022-11-16T16:35:58.333Z,6.78
2022-11-16T16:38:26.506Z,6.80
2022-11-16T16:41:03.675Z,6.81
2022-11-16T16:43:32.765Z,6.85
2022-11-16T16:46:03.003Z,6.86
2022-11-16T16:48:31.227Z,6.86
2022-11-16T16:50:59.368Z,6.85
2022-11-16T16:53:27.497Z,6.85
2022-11-16T16:55:55.676Z,6.85
2022-11-16T16:58:23.863Z,6.86
2022-11-16T17:00:56.951Z,6.85
2022-11-16T17:03:28.105Z,6.86
2022-11-16T17:06:03.095Z,6.86
2022-11-16T17:08:39.000Z,6.87
2022-11-16T17:11:07.177Z,6.87
2022-11-16T17:13:35.719Z,6.87
2022-11-16T17:16:05.961Z,6.86
2022-11-16T17:18:34.131Z,6.82
2022-11-16T17:21:07.860Z,6.80
2022-11-16T17:23:37.416Z,6.74
2022-11-16T17:26:08.399Z,6.69
2022-11-16T17:28:36.685Z,6.66
2022-11-16T17:31:10.699Z,6.63
2022-11-16T17:33:42.142Z,6.60
2022-11-16T17:36:14.326Z,6.58
2022-11-16T17:38:42.587Z,6.54
2022-11-16T17:41:24.090Z,6.52
2022-11-16T17:43:54.376Z,6.46
2022-11-16T17:46:25.738Z,6.40
2022-11-16T17:48:53.833Z,6.36
2022-11-16T17:51:25.144Z,6.33
2022-11-16T17:53:53.562Z,6.31
2022-11-16T17:56:26.132Z,6.29
2022-11-16T17:58:56.065Z,6.26
2022-11-16T18:01:25.422Z,6.24
2022-11-16T18:03:53.842Z,6.22
2022-11-16T18:06:25.179Z,6.21
2022-11-16T18:08:53.612Z,6.19
2022-11-16T18:11:25.101Z,6.17
2022-11-16T18:13:56.058Z,6.16
2022-11-16T18:16:27.841Z,6.15
2022-11-16T18:19:02.154Z,6.13
2022-11-16T18:21:31.347Z,6.11
2022-11-16T18:24:00.210Z,6.09
2022-11-16T18:26:28.347Z,6.08
2022-11-16T18:28:56.514Z,6.08
2022-11-16T18:31:25.407Z,6.13
2022-11-16T18:33:53.500Z,6.19
2022-11-16T18:36:22.844Z,6.21
2022-11-16T18:38:51.153Z,6.23
2022-11-16T18:41:29.279Z,6.25
2022-11-16T18:44:02.124Z,6.28
2022-11-16T18:46:32.677Z,6.31
2022-11-16T18:49:01.030Z,6.35
2022-11-16T18:51:29.707Z,6.38
2022-11-16T18:53:58.003Z,6.42
2022-11-16T18:56:27.261Z,6.44
2022-11-16T18:58:55.400Z,6.46
2022-11-16T19:01:27.496Z,6.49
2022-11-16T19:03:56.522Z,6.52
2022-11-16T19:06:24.639Z,6.55
2022-11-16T19:08:59.611Z,6.58
2022-11-16T19:11:28.807Z,6.59
2022-11-16T19:14:00.797Z,6.61
2022-11-16T19:16:29.415Z,6.61
2022-11-16T19:18:57.548Z,6.63
2022-11-16T19:21:25.769Z,6.67
2022-11-16T19:23:56.156Z,6.70
2022-11-16T19:26:27.111Z,6.70
2022-11-16T19:28:55.726Z,6.69
2022-11-16T19:31:29.894Z,6.71
2022-11-16T19:34:05.095Z,6.72
2022-11-16T19:36:36.325Z,6.74
2022-11-16T19:39:06.002Z,6.74
2022-11-16T19:41:34.120Z,6.76
2022-11-16T19:44:02.410Z,6.77
2022-11-16T19:46:33.215Z,6.80
2022-11-16T19:49:01.811Z,6.80
2022-11-16T19:51:33.038Z,6.81
2022-11-16T19:54:02.724Z,6.79
2022-11-16T19:56:31.221Z,6.79
2022-11-16T19:59:00.411Z,6.79
2022-11-16T20:01:29.391Z,6.81
2022-11-16T20:04:03.457Z,6.82
2022-11-16T20:06:35.410Z,6.82
2022-11-16T20:09:09.415Z,6.84
2022-11-16T20:11:40.179Z,6.85
2022-11-16T20:14:11.951Z,6.86
2022-11-16T20:16:43.226Z,6.90
2022-11-16T20:19:11.710Z,6.91
2022-11-16T20:21:42.862Z,6.91
2022-11-16T20:35:17.758Z,6.97
2022-11-16T20:37:47.700Z,6.97
2022-11-16T20:40:15.933Z,6.99
2022-11-16T20:42:44.022Z,6.98
2022-11-16T20:45:12.137Z,6.99
2022-11-16T20:47:40.226Z,6.99
2022-11-16T20:50:08.891Z,7.00
2022-11-16T20:52:42.290Z,7.02
2022-11-16T20:55:11.676Z,7.02
2022-11-16T20:57:39.803Z,7.00
2022-11-16T21:00:08.855Z,6.97
2022-11-16T21:02:36.980Z,6.97
2022-11-16T21:05:05.775Z,6.96
2022-11-16T21:07:34.544Z,6.96
2022-11-16T21:10:21.016Z,6.97
2022-11-16T21:13:08.049Z,6.98
2022-11-16T21:15:36.214Z,6.98
2022-11-16T21:18:04.554Z,6.98
2022-11-16T21:20:32.686Z,6.99
2022-11-16T21:23:00.825Z,6.99
2022-11-16T21:25:29.077Z,6.99
2022-11-16T21:27:57.197Z,7.02
2022-11-16T21:30:25.321Z,7.03
2022-11-16T21:32:53.429Z,7.03
2022-11-16T21:35:21.601Z,7.03
2022-11-16T21:37:49.710Z,7.04
2022-11-16T21:40:17.849Z,7.04
2022-11-16T21:42:47.550Z,7.05
2022-11-16T21:45:15.661Z,7.07
2022-11-16T21:47:43.783Z,7.06
2022-11-16T21:53:00.730Z,7.05
2022-11-16T21:55:29.058Z,7.05
2022-11-16T21:58:00.826Z,7.05
2022-11-16T22:00:29.782Z,7.04
2022-11-16T22:02:57.917Z,7.05
2022-11-16T22:05:44.835Z,7.04
2022-11-16T22:08:12.989Z,7.03
2022-11-16T22:10:41.169Z,7.01
2022-11-16T22:13:09.265Z,7.02
2022-11-16T22:15:37.358Z,7.02
2022-11-16T22:18:05.746Z,7.03
2022-11-16T22:20:34.112Z,7.04
2022-11-16T22:23:02.232Z,7.04
2022-11-16T22:25:30.387Z,7.05
2022-11-16T22:28:19.800Z,7.07
2022-11-16T22:30:51.362Z,7.04
2022-11-16T22:33:20.646Z,7.05
2022-11-16T22:35:48.764Z,7.07
2022-11-16T22:38:16.870Z,7.07
2022-11-16T22:40:52.797Z,7.09
2022-11-16T22:43:31.351Z,7.09
2022-11-16T22:46:02.565Z,7.10
2022-11-16T22:48:36.569Z,7.13
2022-11-16T22:51:19.603Z,7.16
2022-11-16T22:53:51.965Z,7.18
2022-11-16T22:56:20.162Z,7.19
2022-11-16T22:58:48.335Z,7.22
2022-11-16T23:01:16.760Z,7.25
2022-11-16T23:03:45.139Z,7.30
2022-11-16T23:06:13.675Z,7.33
2022-11-16T23:08:41.972Z,7.34
2022-11-16T23:11:38.141Z,7.35
2022-11-16T23:14:29.595Z,7.34
2022-11-16T23:16:58.057Z,7.37
2022-11-16T23:19:45.298Z,7.38
2022-11-16T23:22:39.003Z,7.41
2022-11-16T23:25:28.619Z,7.43
2022-11-16T23:28:06.736Z,7.42
2022-11-16T23:30:36.776Z,7.43
2022-11-16T23:33:04.862Z,7.44
2022-11-16T23:35:33.523Z,7.45
2022-11-16T23:38:06.482Z,7.45
2022-11-16T23:40:40.067Z,7.45
2022-11-16T23:43:28.789Z,7.45
2022-11-16T23:45:57.024Z,7.46
2022-11-16T23:48:25.169Z,7.47
2022-11-16T23:50:53.291Z,7.49
2022-11-16T23:53:21.472Z,7.51
2022-11-16T23:55:49.613Z,7.52
2022-11-16T23:58:17.701Z,7.55
